createdAt,value
2023-04-25T00:01:39.426Z,97541.84
2023-04-25T00:04:09.109Z,97528.00
2023-04-25T00:06:37.145Z,97524.56
2023-04-25T00:09:10.019Z,97537.38
2023-04-25T00:11:36.405Z,97525.41
2023-04-25T00:14:03.441Z,97528.06
2023-04-25T00:16:31.673Z,97528.06
2023-04-25T00:18:59.646Z,97537.13
2023-04-25T00:21:26.493Z,97528.84
2023-04-25T00:23:56.119Z,97532.91
2023-04-25T00:26:22.444Z,97529.41
2023-04-25T00:28:48.928Z,97528.63
2023-04-25T00:31:15.386Z,97535.03
2023-04-25T00:33:41.708Z,97527.31
2023-04-25T00:36:08.227Z,97533.44
2023-04-25T00:38:34.536Z,97530.25
2023-04-25T00:41:00.840Z,97536.66
2023-04-25T00:43:27.355Z,97525.50
2023-04-25T00:45:53.725Z,97536.16
2023-04-25T00:48:21.872Z,97529.50
2023-04-25T00:50:51.475Z,97524.47
2023-04-25T00:53:17.800Z,97523.97
2023-04-25T00:55:44.124Z,97517.56
2023-04-25T00:58:10.429Z,97522.09
2023-04-25T01:00:36.749Z,97521.31
2023-04-25T01:03:03.731Z,97511.97
2023-04-25T01:05:32.494Z,97509.31
2023-04-25T01:07:58.796Z,97512.25
2023-04-25T01:10:25.146Z,97516.78
2023-04-25T01:12:53.036Z,97512.53
2023-04-25T01:15:21.247Z,97525.84
2023-04-25T01:17:48.321Z,97522.38
2023-04-25T01:20:14.681Z,97519.72
2023-04-25T01:22:41.228Z,97510.16
2023-04-25T01:25:07.915Z,97518.13
2023-04-25T01:27:34.239Z,97518.13
2023-04-25T01:30:00.742Z,97517.63
2023-04-25T01:32:27.399Z,97516.81
2023-04-25T01:34:53.737Z,97515.53
2023-04-25T01:37:20.284Z,97520.84
2023-04-25T01:39:46.716Z,97519.78
2023-04-25T01:42:13.573Z,97518.19
2023-04-25T01:44:39.893Z,97520.31
2023-04-25T01:47:06.313Z,97529.13
2023-04-25T01:49:32.697Z,97525.66
2023-04-25T01:51:59.032Z,97519.81
2023-04-25T01:54:25.439Z,97525.16
2023-04-25T01:56:52.148Z,97517.94
2023-04-25T01:59:19.167Z,97517.44
2023-04-25T02:01:45.668Z,97525.44
2023-04-25T02:04:12.175Z,97522.97
2023-04-25T02:06:38.608Z,97523.63
2023-04-25T02:09:04.923Z,97530.50
2023-04-25T02:11:31.248Z,97526.97
2023-04-25T02:13:57.564Z,97533.88
2023-04-25T02:16:24.415Z,97529.53
2023-04-25T02:18:53.655Z,97536.69
2023-04-25T02:21:20.027Z,97535.03
2023-04-25T02:23:49.936Z,97538.25
2023-04-25T02:26:16.707Z,97542.47
2023-04-25T02:28:43.025Z,97536.38
2023-04-25T02:31:09.429Z,97537.66
2023-04-25T02:33:35.958Z,97530.25
2023-04-25T02:36:02.285Z,97536.63
2023-04-25T02:38:28.618Z,97530.44
2023-04-25T02:40:54.948Z,97538.63
2023-04-25T02:43:21.999Z,97541.16
2023-04-25T02:45:48.660Z,97534.41
2023-04-25T02:48:15.616Z,97536.53
2023-04-25T02:50:41.992Z,97524.78
2023-04-25T02:53:08.304Z,97530.91
2023-04-25T02:55:34.677Z,97533.84
2023-04-25T02:58:01.325Z,97535.13
2023-04-25T03:00:27.948Z,97535.94
2023-04-25T03:02:56.950Z,97539.19
2023-04-25T03:05:23.341Z,97543.72
2023-04-25T03:07:49.682Z,97548.25
2023-04-25T03:10:16.261Z,97552.00
2023-04-25T03:12:47.159Z,97547.75
2023-04-25T03:15:13.486Z,97553.56
2023-04-25T03:17:39.867Z,97557.31
2023-04-25T03:20:06.549Z,97564.53
2023-04-25T03:22:32.877Z,97566.19
2023-04-25T03:24:59.189Z,97566.19
2023-04-25T03:27:26.679Z,97567.56
2023-04-25T03:29:53.002Z,97571.56
2023-04-25T03:32:19.405Z,97572.88
2023-04-25T03:34:45.839Z,97576.06
2023-04-25T03:37:12.347Z,97581.91
2023-04-25T03:39:39.397Z,97582.72
2023-04-25T03:42:05.733Z,97584.59
2023-04-25T03:44:32.062Z,97578.72
2023-04-25T03:46:58.727Z,97588.09
2023-04-25T03:49:25.601Z,97587.56
2023-04-25T03:51:51.971Z,97587.56
2023-04-25T03:54:18.373Z,97584.34
2023-04-25T03:56:44.779Z,97581.06
2023-04-25T03:59:11.094Z,97587.13
2023-04-25T04:01:37.436Z,97583.91
2023-04-25T04:04:03.875Z,97591.34
2023-04-25T04:06:30.470Z,97598.00
2023-04-25T04:08:57.637Z,97595.31
2023-04-25T04:11:23.958Z,97601.94
2023-04-25T04:13:50.567Z,97603.31
2023-04-25T04:16:18.067Z,97609.47
2023-04-25T04:18:44.636Z,97609.22
2023-04-25T04:21:10.963Z,97612.38
2023-04-25T04:23:39.693Z,97617.22
2023-04-25T04:26:06.319Z,97615.63
2023-04-25T04:28:32.709Z,97615.91
2023-04-25T04:31:01.984Z,97617.78
2023-04-25T04:33:31.233Z,97619.91
2023-04-25T04:35:57.777Z,97630.31
2023-04-25T04:38:24.893Z,97616.47
2023-04-25T04:40:51.321Z,97625.53
2023-04-25T04:43:18.091Z,97626.34
2023-04-25T04:45:45.502Z,97625.81
2023-04-25T04:48:14.971Z,97628.47
2023-04-25T04:50:42.014Z,97629.56
2023-04-25T04:53:08.339Z,97633.31
2023-04-25T04:55:34.661Z,97636.25
2023-04-25T04:58:01.097Z,97648.28
2023-04-25T05:00:29.660Z,97651.50
2023-04-25T05:02:56.696Z,97658.47
2023-04-25T05:05:23.427Z,97657.47
2023-04-25T05:07:49.751Z,97659.59
2023-04-25T05:10:16.266Z,97666.03
2023-04-25T05:12:42.599Z,97667.28
2023-04-25T05:15:08.968Z,97677.84
2023-04-25T05:17:35.546Z,97670.59
2023-04-25T05:20:02.657Z,97670.84
2023-04-25T05:22:28.976Z,97674.56
2023-04-25T05:24:57.682Z,97681.78
2023-04-25T05:27:24.522Z,97677.53
2023-04-25T05:29:50.839Z,97687.91
2023-04-25T05:32:18.059Z,97690.06
2023-04-25T05:34:44.478Z,97700.75
2023-04-25T05:37:10.938Z,97696.19
2023-04-25T05:39:37.321Z,97691.13
2023-04-25T05:42:04.800Z,97700.75
2023-04-25T05:44:31.344Z,97704.47
2023-04-25T05:46:58.990Z,97701.81
2023-04-25T05:49:25.305Z,97705.56
2023-04-25T05:51:51.633Z,97713.25
2023-04-25T05:54:18.363Z,97718.59
2023-04-25T05:56:44.694Z,97717.00
2023-04-25T05:59:11.022Z,97727.91
2023-04-25T06:01:37.422Z,97720.44
2023-04-25T06:04:03.977Z,97725.22
2023-04-25T06:06:31.131Z,97724.41
2023-04-25T06:08:57.442Z,97727.06
2023-04-25T06:11:23.752Z,97734.28
2023-04-25T06:13:50.556Z,97731.91
2023-04-25T06:16:17.167Z,97729.53
2023-04-25T06:18:43.606Z,97739.41
2023-04-25T06:21:10.002Z,97741.81
2023-04-25T06:23:36.409Z,97740.22
2023-04-25T06:26:02.720Z,97749.81
2023-04-25T06:28:29.101Z,97742.06
2023-04-25T06:30:55.483Z,97742.53
2023-04-25T06:33:22.522Z,97738.78
2023-04-25T06:35:48.881Z,97747.22
2023-04-25T06:38:15.891Z,97744.41
2023-04-25T06:40:42.424Z,97752.72
2023-04-25T06:43:08.847Z,97747.53
2023-04-25T06:45:35.233Z,97752.50
2023-04-25T06:48:01.624Z,97758.94
2023-04-25T06:50:28.002Z,97759.19
2023-04-25T06:52:54.321Z,97757.16
2023-04-25T06:55:20.735Z,97755.72
2023-04-25T06:57:47.113Z,97757.63
2023-04-25T07:00:13.836Z,97765.00
2023-04-25T07:02:41.490Z,97757.91
2023-04-25T07:05:07.980Z,97777.66
2023-04-25T07:07:34.322Z,97767.47
2023-04-25T07:10:01.461Z,97774.94
2023-04-25T07:12:27.818Z,97768.91
2023-04-25T07:14:54.142Z,97777.13
2023-04-25T07:17:20.570Z,97780.63
2023-04-25T07:19:46.885Z,97779.22
2023-04-25T07:22:13.298Z,97781.97
2023-04-25T07:24:39.744Z,97787.59
2023-04-25T07:27:06.177Z,97792.13
2023-04-25T07:29:32.771Z,97802.53
2023-04-25T07:31:59.159Z,97799.31
2023-04-25T07:34:25.508Z,97801.25
2023-04-25T07:36:51.846Z,97804.16
2023-04-25T07:39:18.174Z,97801.72
2023-04-25T07:41:44.738Z,97807.91
2023-04-25T07:44:11.347Z,97807.03
2023-04-25T07:46:37.678Z,97808.28
2023-04-25T07:49:04.001Z,97799.09
2023-04-25T07:51:30.370Z,97810.44
2023-04-25T07:53:56.713Z,97817.84
2023-04-25T07:56:23.067Z,97821.03
2023-04-25T07:58:49.700Z,97814.88
2023-04-25T08:01:16.353Z,97814.59
2023-04-25T08:03:42.982Z,97820.66
2023-04-25T08:06:11.260Z,97822.78
2023-04-25T08:08:37.789Z,97821.19
2023-04-25T08:11:04.227Z,97825.16
2023-04-25T08:13:30.551Z,97826.53
2023-04-25T08:15:56.939Z,97836.38
2023-04-25T08:18:23.353Z,97833.47
2023-04-25T08:20:49.690Z,97840.94
2023-04-25T08:23:16.194Z,97843.63
2023-04-25T08:25:42.532Z,97847.44
2023-04-25T08:28:08.862Z,97844.59
2023-04-25T08:30:35.349Z,97850.47
2023-04-25T08:33:01.739Z,97849.97
2023-04-25T08:35:28.150Z,97850.78
2023-04-25T08:37:54.647Z,97854.75
2023-04-25T08:40:22.047Z,97860.63
2023-04-25T08:42:48.413Z,97857.44
2023-04-25T08:45:16.152Z,97872.66
2023-04-25T08:47:42.625Z,97878.56
2023-04-25T08:50:09.091Z,97871.66
2023-04-25T08:52:36.980Z,97868.91
2023-04-25T08:55:04.261Z,97884.31
2023-04-25T08:57:31.889Z,97877.56
2023-04-25T08:59:58.357Z,97879.69
2023-04-25T09:02:25.013Z,97880.16
2023-04-25T09:04:51.451Z,97886.28
2023-04-25T09:07:21.988Z,97893.72
2023-04-25T09:09:48.882Z,97895.84
2023-04-25T09:12:15.372Z,97901.97
2023-04-25T09:14:43.391Z,97908.91
2023-04-25T09:17:09.892Z,97898.25
2023-04-25T09:19:40.958Z,97907.31
2023-04-25T09:22:08.056Z,97916.91
2023-04-25T09:24:37.893Z,97912.38
2023-04-25T09:27:04.776Z,97915.59
2023-04-25T09:29:35.349Z,97922.78
2023-04-25T09:32:12.378Z,97915.78
2023-04-25T09:34:42.891Z,97923.56
2023-04-25T09:37:12.310Z,97926.00
2023-04-25T09:39:39.719Z,97926.25
2023-04-25T09:42:06.372Z,97930.59
2023-04-25T09:44:32.815Z,97931.13
2023-04-25T09:47:00.196Z,97941.50
2023-04-25T09:49:26.992Z,97933.00
2023-04-25T09:51:59.295Z,97943.94
2023-04-25T09:54:25.949Z,97937.25
2023-04-25T09:56:52.635Z,97943.38
2023-04-25T09:59:23.095Z,97946.84
2023-04-25T10:01:51.203Z,97944.16
2023-04-25T10:04:22.018Z,97950.84
2023-04-25T10:06:50.222Z,97948.72
2023-04-25T10:09:16.838Z,97946.31
2023-04-25T10:11:43.352Z,97950.63
2023-04-25T10:14:09.744Z,97961.28
2023-04-25T10:16:36.224Z,97957.81
2023-04-25T10:19:03.911Z,97967.16
2023-04-25T10:21:31.643Z,97966.88
2023-04-25T10:23:58.132Z,97967.91
2023-04-25T10:26:24.725Z,97973.22
2023-04-25T10:28:57.749Z,97973.72
2023-04-25T10:31:24.133Z,97980.41
2023-04-25T10:33:53.246Z,97983.31
2023-04-25T10:36:21.856Z,97980.66
2023-04-25T10:38:48.406Z,97993.19
2023-04-25T10:41:14.725Z,97996.16
2023-04-25T10:43:44.436Z,97990.81
2023-04-25T10:46:37.319Z,97990.03
2023-04-25T10:49:03.985Z,97990.81
2023-04-25T10:51:47.384Z,97983.34
2023-04-25T10:54:20.977Z,97986.03
2023-04-25T10:56:47.305Z,97987.91
2023-04-25T10:59:17.430Z,97984.66
2023-04-25T11:01:47.987Z,97992.25
2023-04-25T11:04:24.053Z,97990.56
2023-04-25T11:09:52.623Z,97981.16
2023-04-25T11:12:18.972Z,97983.56
2023-04-25T11:14:37.937Z,97983.84
2023-04-25T11:14:45.410Z,97981.41
2023-04-25T11:17:12.173Z,97980.03
2023-04-25T11:19:38.636Z,97978.41
2023-04-25T11:22:04.947Z,97996.59
2023-04-25T11:24:31.743Z,97982.16
2023-04-25T11:27:00.914Z,97985.06
2023-04-25T11:29:27.541Z,97971.97
2023-04-25T11:31:54.334Z,97978.59
2023-04-25T11:34:20.778Z,97975.69
2023-04-25T11:36:47.157Z,97994.47
2023-04-25T11:39:13.488Z,97994.81
2023-04-25T11:41:41.426Z,97997.47
2023-04-25T11:44:08.114Z,98003.06
2023-04-25T11:46:37.628Z,98005.16
2023-04-25T11:49:05.238Z,98008.63
2023-04-25T11:51:32.765Z,98009.41
2023-04-25T11:53:59.109Z,98018.25
2023-04-25T11:56:25.432Z,98020.34
2023-04-25T11:58:55.406Z,98018.25
2023-04-25T12:01:35.875Z,98027.31
2023-04-25T12:04:12.336Z,98034.81
2023-04-25T12:06:41.939Z,98027.88
2023-04-25T12:09:08.970Z,98035.91
2023-04-25T12:11:41.945Z,98042.56
2023-04-25T12:14:08.275Z,98039.91
2023-04-25T12:16:41.754Z,98045.25
2023-04-25T12:19:08.116Z,98028.97
2023-04-25T12:21:38.825Z,98036.16
2023-04-25T12:24:11.100Z,98038.78
2023-04-25T12:26:53.909Z,98039.81
2023-04-25T12:29:21.174Z,98030.75
2023-04-25T12:31:48.707Z,98036.34
2023-04-25T12:34:15.584Z,98038.75
2023-04-25T12:36:41.924Z,98031.31
2023-04-25T12:39:08.976Z,98034.78
2023-04-25T12:41:35.348Z,98023.59
2023-04-25T12:44:01.718Z,98031.34
2023-04-25T12:46:28.089Z,98032.69
2023-04-25T12:48:55.001Z,98031.66
2023-04-25T12:51:25.812Z,98035.69
2023-04-25T12:53:52.899Z,98046.63
2023-04-25T12:56:21.439Z,98042.94
2023-04-25T12:58:50.193Z,98046.66
2023-04-25T13:01:16.641Z,98037.84
2023-04-25T13:03:43.325Z,98051.75
2023-04-25T13:06:09.915Z,98040.78
2023-04-25T13:08:37.685Z,98041.03
2023-04-25T13:11:04.743Z,98037.78
2023-04-25T13:13:32.456Z,98042.88
2023-04-25T13:15:59.047Z,98040.69
2023-04-25T13:18:27.417Z,98042.28
2023-04-25T13:20:54.090Z,98046.31
2023-04-25T13:23:21.267Z,98050.06
2023-04-25T13:25:47.814Z,98045.00
2023-04-25T13:28:14.229Z,98041.81
2023-04-25T13:30:40.629Z,98043.41
2023-04-25T13:33:07.434Z,98047.16
2023-04-25T13:35:34.148Z,98045.28
2023-04-25T13:38:00.965Z,98041.81
2023-04-25T13:40:27.880Z,98046.38
2023-04-25T13:42:54.264Z,98047.69
2023-04-25T13:45:20.986Z,98044.25
2023-04-25T13:47:47.323Z,98051.97
2023-04-25T13:50:14.567Z,98049.28
2023-04-25T13:52:41.095Z,98043.94
2023-04-25T13:55:08.107Z,98049.28
2023-04-25T13:57:34.672Z,98045.03
2023-04-25T14:00:05.693Z,98055.19
2023-04-25T14:02:32.156Z,98045.88
2023-04-25T14:04:58.670Z,98054.44
2023-04-25T14:07:25.066Z,98062.19
2023-04-25T14:09:51.403Z,98066.78
2023-04-25T14:12:17.750Z,98077.19
2023-04-25T14:14:44.114Z,98090.00
2023-04-25T14:17:10.873Z,98092.69
2023-04-25T14:19:39.502Z,98097.50
2023-04-25T14:22:05.881Z,98094.34
2023-04-25T14:24:32.192Z,98089.25
2023-04-25T14:26:58.555Z,98100.19
2023-04-25T14:29:24.875Z,98100.97
2023-04-25T14:31:51.388Z,98100.41
2023-04-25T14:34:17.886Z,98106.00
2023-04-25T14:36:44.239Z,98089.72
2023-04-25T14:39:11.026Z,98090.00
2023-04-25T14:41:37.366Z,98091.84
2023-04-25T14:44:03.686Z,98100.38
2023-04-25T14:46:30.014Z,98095.03
2023-04-25T14:48:57.188Z,98101.72
2023-04-25T14:51:23.669Z,98097.19
2023-04-25T14:53:50.221Z,98101.44
2023-04-25T14:56:16.724Z,98097.69
2023-04-25T14:58:43.113Z,98101.66
2023-04-25T15:01:09.846Z,98099.81
2023-04-25T15:03:36.517Z,98097.16
2023-04-25T15:06:03.001Z,98089.94
2023-04-25T15:08:29.408Z,98095.75
2023-04-25T15:10:55.818Z,98098.97
2023-04-25T15:13:22.203Z,98110.94
2023-04-25T15:15:52.068Z,98111.22
2023-04-25T15:18:19.203Z,98111.75
2023-04-25T15:20:45.564Z,98112.31
2023-04-25T15:23:12.950Z,98119.53
2023-04-25T15:25:39.956Z,98112.03
2023-04-25T15:28:06.450Z,98104.56
2023-04-25T15:30:32.801Z,98113.13
2023-04-25T15:32:59.225Z,98108.34
2023-04-25T15:35:25.600Z,98109.94
2023-04-25T15:37:52.220Z,98109.69
2023-04-25T15:40:18.559Z,98110.75
2023-04-25T15:42:48.746Z,98106.50
2023-04-25T15:45:15.544Z,98112.63
2023-04-25T15:47:42.063Z,98115.53
2023-04-25T15:50:09.379Z,98104.84
2023-04-25T15:52:35.954Z,98118.19
2023-04-25T15:55:02.435Z,98107.22
2023-04-25T15:57:28.798Z,98122.16
2023-04-25T15:59:55.216Z,98129.88
2023-04-25T16:02:21.656Z,98139.50
2023-04-25T16:04:48.318Z,98137.94
2023-04-25T16:07:14.754Z,98149.41
2023-04-25T16:09:41.093Z,98137.13
2023-04-25T16:12:08.439Z,98152.34
2023-04-25T16:14:34.885Z,98150.19
2023-04-25T16:17:01.224Z,98146.97
2023-04-25T16:19:27.540Z,98152.56
2023-04-25T16:21:53.873Z,98157.13
2023-04-25T16:24:20.267Z,98150.19
2023-04-25T16:26:46.605Z,98149.69
2023-04-25T16:29:14.654Z,98157.94
2023-04-25T16:31:41.988Z,98141.69
2023-04-25T16:34:08.362Z,98145.69
2023-04-25T16:36:34.697Z,98142.25
2023-04-25T16:39:01.250Z,98148.41
2023-04-25T16:41:27.838Z,98134.78
2023-04-25T16:43:54.359Z,98148.41
2023-04-25T16:46:21.559Z,98145.22
2023-04-25T16:48:48.859Z,98153.47
2023-04-25T16:51:16.072Z,98149.50
2023-04-25T16:53:42.680Z,98149.75
2023-04-25T16:56:09.058Z,98148.69
2023-04-25T16:58:35.487Z,98150.56
2023-04-25T17:01:02.153Z,98150.06
2023-04-25T17:03:28.699Z,98154.88
2023-04-25T17:05:57.914Z,98158.84
2023-04-25T17:08:24.758Z,98159.97
2023-04-25T17:10:51.301Z,98166.59
2023-04-25T17:13:17.861Z,98166.88
2023-04-25T17:15:44.329Z,98166.84
2023-04-25T17:18:10.938Z,98171.38
2023-04-25T17:20:37.566Z,98177.78
2023-04-25T17:23:03.944Z,98168.72
2023-04-25T17:25:30.325Z,98181.53
2023-04-25T17:27:56.639Z,98185.00
2023-04-25T17:30:23.700Z,98188.19
2023-04-25T17:32:50.115Z,98193.25
2023-04-25T17:35:17.044Z,98192.47
2023-04-25T17:37:43.824Z,98188.50
2023-04-25T17:40:12.934Z,98202.91
2023-04-25T17:42:39.572Z,98205.03
2023-04-25T17:45:06.302Z,98207.44
2023-04-25T17:47:32.705Z,98203.72
2023-04-25T17:49:59.044Z,98208.81
2023-04-25T17:52:25.717Z,98204.00
2023-04-25T17:54:52.314Z,98200.81
2023-04-25T17:57:18.848Z,98209.63
2023-04-25T17:59:45.249Z,98218.44
2023-04-25T18:02:11.698Z,98217.88
2023-04-25T18:04:38.385Z,98215.75
2023-04-25T18:07:05.805Z,98213.88
2023-04-25T18:09:32.405Z,98216.28
2023-04-25T18:11:58.748Z,98222.94
2023-04-25T18:14:25.394Z,98217.88
2023-04-25T18:16:52.734Z,98224.78
2023-04-25T18:19:21.597Z,98228.28
2023-04-25T18:21:51.926Z,98222.09
2023-04-25T18:24:18.301Z,98233.00
2023-04-25T18:26:45.012Z,98235.34
2023-04-25T18:29:18.948Z,98233.19
2023-04-25T18:31:56.282Z,98243.78
2023-04-25T18:34:27.293Z,98243.44
2023-04-25T18:36:59.787Z,98250.28
2023-04-25T18:39:27.017Z,98256.06
2023-04-25T18:42:00.062Z,98237.63
2023-04-25T18:44:33.616Z,98260.84
2023-04-25T18:47:00.238Z,98257.81
2023-04-25T18:49:28.349Z,98269.78
2023-04-25T18:51:56.172Z,98269.50
2023-04-25T18:54:22.736Z,98263.06
2023-04-25T18:56:49.074Z,98273.72
2023-04-25T18:59:17.035Z,98275.00
2023-04-25T19:01:43.602Z,98279.28
2023-04-25T19:04:10.161Z,98294.00
2023-04-25T19:06:36.615Z,98286.47
2023-04-25T19:09:04.220Z,98289.13
2023-04-25T19:11:30.709Z,98303.06
2023-04-25T19:13:57.410Z,98299.06
2023-04-25T19:16:25.997Z,98298.53
2023-04-25T19:18:53.531Z,98302.53
2023-04-25T19:21:20.064Z,98303.59
2023-04-25T19:23:48.466Z,98302.81
2023-04-25T19:26:14.833Z,98313.22
2023-04-25T19:28:42.812Z,98310.28
2023-04-25T19:31:09.194Z,98305.44
2023-04-25T19:33:35.572Z,98307.56
2023-04-25T19:36:02.139Z,98305.41
2023-04-25T19:38:28.937Z,98312.34
2023-04-25T19:40:55.244Z,98313.16
2023-04-25T19:43:21.972Z,98314.81
2023-04-25T19:45:48.386Z,98316.16
2023-04-25T19:48:15.289Z,98313.75
2023-04-25T19:50:41.800Z,98315.63
2023-04-25T19:53:09.271Z,98319.91
2023-04-25T19:55:35.725Z,98321.25
2023-04-25T19:58:03.263Z,98312.72
2023-04-25T20:00:29.581Z,98313.00
2023-04-25T20:02:56.661Z,98321.56
2023-04-25T20:05:23.529Z,98325.59
2023-04-25T20:07:50.409Z,98331.22
2023-04-25T20:10:17.379Z,98324.84
2023-04-25T20:12:44.063Z,98326.72
2023-04-25T20:15:11.444Z,98327.88
2023-04-25T20:17:42.336Z,98328.50
2023-04-25T20:20:09.912Z,98328.50
2023-04-25T20:22:37.069Z,98341.34
2023-04-25T20:25:04.444Z,98339.47
2023-04-25T20:27:31.411Z,98336.00
2023-04-25T20:29:58.714Z,98344.53
2023-04-25T20:32:25.057Z,98342.69
2023-04-25T20:34:51.598Z,98345.00
2023-04-25T20:37:17.946Z,98346.03
2023-04-25T20:39:44.273Z,98352.41
2023-04-25T20:42:10.663Z,98356.19
2023-04-25T20:44:40.868Z,98351.13
2023-04-25T20:47:09.434Z,98351.38
2023-04-25T20:49:36.494Z,98352.69
2023-04-25T20:52:03.065Z,98361.00
2023-04-25T20:54:30.955Z,98352.44
2023-04-25T20:56:57.629Z,98350.88
2023-04-25T20:59:25.316Z,98350.34
2023-04-25T21:01:51.708Z,98355.16
2023-04-25T21:04:18.075Z,98345.59
2023-04-25T21:06:44.465Z,98361.91
2023-04-25T21:09:11.026Z,98356.03
2023-04-25T21:11:38.306Z,98356.03
2023-04-25T21:14:05.434Z,98350.69
2023-04-25T21:16:35.130Z,98355.53
2023-04-25T21:19:02.253Z,98355.78
2023-04-25T21:21:28.570Z,98355.28
2023-04-25T21:23:55.380Z,98355.00
2023-04-25T21:26:22.116Z,98356.06
2023-04-25T21:28:48.440Z,98359.03
2023-04-25T21:31:14.927Z,98357.19
2023-04-25T21:33:41.388Z,98359.34
2023-04-25T21:36:08.114Z,98358.84
2023-04-25T21:38:34.500Z,98357.81
2023-04-25T21:41:00.851Z,98363.94
2023-04-25T21:43:27.187Z,98361.50
2023-04-25T21:46:18.962Z,98355.34
2023-04-25T21:48:39.911Z,98362.06
2023-04-25T21:51:06.241Z,98361.78
2023-04-25T21:53:32.851Z,98355.91
2023-04-25T21:55:59.186Z,98351.91
2023-04-25T21:58:25.524Z,98357.81
2023-04-25T22:00:51.909Z,98354.59
2023-04-25T22:03:20.295Z,98368.50
2023-04-25T22:05:46.987Z,98371.44
2023-04-25T22:08:14.185Z,98366.91
2023-04-25T22:10:40.549Z,98364.78
2023-04-25T22:13:06.931Z,98371.75
2023-04-25T22:15:33.266Z,98376.53
2023-04-25T22:17:59.615Z,98376.28
2023-04-25T22:20:26.778Z,98383.53
2023-04-25T22:22:53.535Z,98383.81
2023-04-25T22:25:21.140Z,98383.81
2023-04-25T22:27:48.081Z,98380.88
2023-04-25T22:30:14.399Z,98386.47
2023-04-25T22:32:40.981Z,98387.28
2023-04-25T22:35:07.475Z,98388.34
2023-04-25T22:37:35.777Z,98392.63
2023-04-25T22:40:05.630Z,98392.38
2023-04-25T22:42:36.965Z,98401.41
2023-04-25T22:45:04.547Z,98400.91
2023-04-25T22:47:30.913Z,98395.56
2023-04-25T22:49:57.889Z,98395.84
2023-04-25T22:52:24.244Z,98399.81
2023-04-25T22:54:50.572Z,98401.97
2023-04-25T22:57:16.962Z,98395.81
2023-04-25T22:59:43.279Z,98403.28
2023-04-25T23:02:10.535Z,98406.22
2023-04-25T23:04:37.848Z,98404.59
2023-04-25T23:07:04.250Z,98411.81
2023-04-25T23:09:30.589Z,98412.38
2023-04-25T23:11:57.333Z,98409.69
2023-04-25T23:14:24.107Z,98413.44
2023-04-25T23:16:50.553Z,98412.09
2023-04-25T23:19:16.958Z,98406.22
2023-04-25T23:21:43.301Z,98412.06
2023-04-25T23:24:09.839Z,98407.78
2023-04-25T23:26:36.189Z,98409.91
2023-04-25T23:29:02.504Z,98413.91
2023-04-25T23:31:29.518Z,98418.97
2023-04-25T23:33:56.017Z,98418.16
2023-04-25T23:36:22.348Z,98424.03
2023-04-25T23:38:50.347Z,98417.09
2023-04-25T23:41:16.973Z,98422.69
2023-04-25T23:43:43.318Z,98428.53
2023-04-25T23:46:09.724Z,98420.03
2023-04-25T23:48:36.339Z,98428.53
2023-04-25T23:51:02.737Z,98426.13
2023-04-25T23:53:29.066Z,98430.66
2023-04-25T23:55:55.368Z,98431.47
2023-04-25T23:58:21.722Z,98440.28
